createdAt,value
2023-02-08T00:00:37.049Z,70.45
2023-02-08T00:03:43.514Z,70.48
2023-02-08T00:06:49.576Z,70.38
2023-02-08T00:09:56.326Z,69.61
2023-02-08T00:13:02.631Z,68.75
2023-02-08T00:16:09.601Z,69.06
2023-02-08T00:19:15.565Z,69.37
2023-02-08T00:22:21.810Z,69.24
2023-02-08T00:25:26.930Z,68.16
2023-02-08T00:28:34.697Z,68.38
2023-02-08T00:31:40.372Z,67.86
2023-02-08T00:34:47.186Z,67.64
2023-02-08T00:37:53.040Z,67.89
2023-02-08T00:40:59.568Z,67.71
2023-02-08T00:44:04.360Z,67.53
2023-02-08T00:47:10.270Z,67.79
2023-02-08T00:50:16.455Z,67.69
2023-02-08T00:53:22.505Z,67.42
2023-02-08T00:56:29.088Z,67.88
2023-02-08T00:59:34.798Z,67.90
2023-02-08T01:02:33.567Z,68.36
2023-02-08T01:05:39.718Z,68.64
2023-02-08T01:08:44.613Z,68.49
2023-02-08T01:11:52.618Z,68.52
2023-02-08T01:14:58.966Z,68.36
2023-02-08T01:18:09.671Z,68.18
2023-02-08T01:21:28.092Z,68.48
2023-02-08T01:24:33.528Z,68.33
2023-02-08T01:27:39.939Z,68.26
2023-02-08T01:30:45.596Z,68.36
2023-02-08T01:33:51.444Z,68.21
2023-02-08T01:36:59.067Z,68.37
2023-02-08T01:40:05.602Z,68.49
2023-02-08T01:43:11.326Z,69.00
2023-02-08T01:46:17.187Z,68.27
2023-02-08T01:49:39.684Z,67.94
2023-02-08T01:52:47.136Z,67.75
2023-02-08T01:55:57.024Z,67.67
2023-02-08T01:59:05.055Z,68.25
2023-02-08T02:02:11.482Z,68.32
2023-02-08T02:05:18.316Z,67.87
2023-02-08T02:08:25.751Z,67.96
2023-02-08T02:11:30.433Z,67.98
2023-02-08T02:14:35.740Z,67.75
2023-02-08T02:17:41.183Z,67.93
2023-02-08T02:21:37.173Z,67.77
2023-02-08T02:25:22.529Z,68.19
2023-02-08T02:29:02.984Z,68.01
2023-02-08T02:32:42.875Z,67.69
2023-02-08T02:36:22.425Z,67.59
2023-02-08T02:39:45.808Z,67.36
2023-02-08T02:43:21.775Z,67.47
2023-02-08T02:46:37.928Z,67.69
2023-02-08T02:50:03.210Z,69.41
2023-02-08T02:53:17.646Z,69.23
2023-02-08T02:56:38.108Z,70.00
2023-02-08T02:59:43.689Z,66.31
2023-02-08T03:02:51.905Z,65.67
2023-02-08T03:05:57.200Z,65.73
2023-02-08T03:09:26.948Z,67.58
2023-02-08T03:13:08.358Z,67.83
2023-02-08T03:16:18.441Z,67.95
2023-02-08T03:19:30.408Z,68.45
2023-02-08T03:22:49.258Z,69.56
2023-02-08T03:26:09.746Z,70.63
2023-02-08T03:29:39.902Z,69.99
2023-02-08T03:33:21.296Z,70.72
2023-02-08T03:36:40.634Z,70.20
2023-02-08T03:39:45.921Z,71.18
2023-02-08T03:42:52.643Z,71.27
2023-02-08T03:46:11.840Z,70.91
2023-02-08T03:49:20.966Z,71.11
2023-02-08T03:52:26.523Z,70.41
2023-02-08T03:55:39.361Z,71.11
2023-02-08T03:59:09.992Z,70.81
2023-02-08T04:02:18.877Z,70.98
2023-02-08T04:05:24.458Z,70.46
2023-02-08T04:08:29.861Z,70.47
2023-02-08T04:11:35.997Z,71.18
2023-02-08T04:14:41.990Z,71.40
2023-02-08T04:17:48.262Z,71.68
2023-02-08T04:20:53.895Z,71.45
2023-02-08T04:23:59.201Z,71.53
2023-02-08T04:27:06.123Z,71.78
2023-02-08T04:30:11.231Z,71.72
2023-02-08T04:33:18.880Z,70.93
2023-02-08T04:36:24.830Z,70.34
2023-02-08T04:39:31.120Z,70.62
2023-02-08T04:42:37.348Z,71.17
2023-02-08T04:45:43.408Z,70.98
2023-02-08T04:48:48.893Z,71.38
2023-02-08T04:51:53.855Z,71.30
2023-02-08T04:54:59.809Z,70.90
2023-02-08T04:58:05.719Z,70.98
2023-02-08T05:01:10.735Z,70.88
2023-02-08T05:04:16.685Z,71.24
2023-02-08T05:07:22.699Z,71.28
2023-02-08T05:10:27.680Z,71.68
2023-02-08T05:13:34.264Z,71.33
2023-02-08T05:16:39.005Z,71.34
2023-02-08T05:19:44.067Z,71.18
2023-02-08T05:22:50.734Z,71.03
2023-02-08T05:25:57.188Z,70.92
2023-02-08T05:29:03.817Z,71.18
2023-02-08T05:32:10.555Z,71.15
2023-02-08T05:35:16.347Z,71.04
2023-02-08T05:38:22.120Z,71.51
2023-02-08T05:41:28.378Z,71.36
2023-02-08T05:44:33.273Z,71.27
2023-02-08T05:47:38.479Z,71.06
2023-02-08T05:50:44.202Z,70.99
2023-02-08T05:53:50.353Z,70.84
2023-02-08T05:56:56.509Z,70.52
2023-02-08T06:00:01.378Z,70.02
2023-02-08T06:03:10.296Z,69.98
2023-02-08T06:06:18.820Z,69.47
2023-02-08T06:09:23.977Z,69.34
2023-02-08T06:12:29.753Z,69.04
2023-02-08T06:15:35.182Z,69.01
2023-02-08T06:18:39.694Z,68.54
2023-02-08T06:21:44.474Z,68.18
2023-02-08T06:24:50.007Z,68.10
2023-02-08T06:27:57.519Z,68.26
2023-02-08T06:31:06.547Z,68.37
2023-02-08T06:34:12.187Z,68.09
2023-02-08T06:37:18.112Z,68.09
2023-02-08T06:40:23.918Z,68.00
2023-02-08T06:43:29.793Z,67.41
2023-02-08T06:46:35.457Z,67.81
2023-02-08T06:49:42.091Z,67.63
2023-02-08T06:52:48.015Z,67.26
2023-02-08T06:55:54.708Z,67.08
2023-02-08T06:59:01.065Z,66.33
2023-02-08T07:02:06.252Z,65.66
2023-02-08T07:05:11.844Z,65.62
2023-02-08T07:08:18.588Z,65.79
2023-02-08T07:11:28.981Z,65.54
2023-02-08T07:14:34.729Z,65.58
2023-02-08T07:17:41.066Z,64.90
2023-02-08T07:20:46.639Z,64.78
2023-02-08T07:23:54.016Z,64.82
2023-02-08T07:26:59.898Z,65.11
2023-02-08T07:30:06.116Z,65.09
2023-02-08T07:33:13.009Z,63.75
2023-02-08T07:36:20.595Z,64.23
2023-02-08T07:39:25.678Z,63.61
2023-02-08T07:42:31.595Z,64.23
2023-02-08T07:45:40.807Z,63.84
2023-02-08T07:48:40.521Z,64.48
2023-02-08T07:51:26.796Z,63.89
2023-02-08T07:54:19.687Z,64.73
2023-02-08T07:57:12.173Z,63.99
2023-02-08T08:00:18.967Z,63.86
2023-02-08T08:03:24.671Z,62.66
2023-02-08T08:06:30.565Z,63.83
2023-02-08T08:09:36.897Z,63.08
2023-02-08T08:12:46.352Z,63.14
2023-02-08T08:15:54.935Z,62.63
2023-02-08T08:19:00.374Z,61.81
2023-02-08T08:22:06.148Z,61.81
2023-02-08T08:25:11.739Z,60.92
2023-02-08T08:28:18.501Z,61.96
2023-02-08T08:31:33.562Z,61.79
2023-02-08T08:34:38.813Z,63.28
2023-02-08T08:37:39.185Z,62.59
2023-02-08T08:40:45.660Z,62.29
2023-02-08T08:43:51.882Z,61.38
2023-02-08T08:46:57.089Z,61.26
2023-02-08T08:50:02.579Z,61.69
2023-02-08T08:53:08.128Z,61.19
2023-02-08T08:56:16.874Z,61.73
2023-02-08T08:59:25.189Z,60.83
2023-02-08T09:02:30.866Z,62.07
2023-02-08T09:05:41.344Z,61.61
2023-02-08T09:08:45.795Z,61.10
2023-02-08T09:11:52.743Z,60.94
2023-02-08T09:14:59.458Z,60.44
2023-02-08T09:18:06.188Z,61.03
2023-02-08T09:21:13.682Z,60.63
2023-02-08T09:24:19.487Z,61.53
2023-02-08T09:27:25.572Z,61.76
2023-02-08T09:30:30.783Z,59.69
2023-02-08T09:33:37.392Z,59.55
2023-02-08T09:36:49.085Z,59.70
2023-02-08T09:39:55.271Z,58.56
2023-02-08T09:43:05.083Z,58.71
2023-02-08T09:46:36.753Z,59.89
2023-02-08T09:49:48.811Z,59.65
2023-02-08T09:53:09.276Z,59.07
2023-02-08T09:56:17.114Z,58.27
2023-02-08T09:59:38.448Z,59.34
2023-02-08T10:02:46.198Z,58.71
2023-02-08T10:05:51.721Z,58.32
2023-02-08T10:08:58.044Z,58.18
2023-02-08T10:12:30.863Z,58.88
2023-02-08T10:15:49.122Z,58.90
2023-02-08T10:18:53.414Z,58.98
2023-02-08T10:21:52.757Z,58.65
2023-02-08T10:25:30.574Z,58.29
2023-02-08T10:28:34.300Z,58.55
2023-02-08T10:31:51.556Z,59.65
2023-02-08T10:35:11.270Z,59.10
2023-02-08T10:38:16.236Z,59.11
2023-02-08T10:41:23.076Z,58.74
2023-02-08T10:44:51.388Z,58.85
2023-02-08T10:48:09.489Z,58.21
2023-02-08T10:51:15.126Z,58.48
2023-02-08T10:54:20.548Z,56.99
2023-02-08T10:57:30.345Z,57.05
2023-02-08T11:00:39.316Z,56.82
2023-02-08T11:03:46.604Z,57.49
2023-02-08T11:06:56.774Z,58.13
2023-02-08T11:10:03.471Z,57.67
2023-02-08T11:13:36.442Z,56.76
2023-02-08T11:16:42.587Z,57.27
2023-02-08T11:19:54.109Z,56.13
2023-02-08T11:23:00.064Z,56.71
2023-02-08T11:26:06.076Z,56.78
2023-02-08T11:29:33.755Z,57.15
2023-02-08T11:32:42.177Z,57.24
2023-02-08T11:35:48.252Z,57.17
2023-02-08T11:38:49.983Z,57.44
2023-02-08T11:41:58.651Z,57.91
2023-02-08T11:45:03.818Z,56.52
2023-02-08T11:48:10.879Z,56.38
2023-02-08T11:51:18.041Z,56.14
2023-02-08T11:54:27.317Z,55.69
2023-02-08T11:57:35.670Z,55.63
2023-02-08T12:00:43.215Z,55.92
2023-02-08T12:03:57.544Z,55.46
2023-02-08T12:07:13.735Z,55.85
2023-02-08T12:10:35.716Z,55.23
2023-02-08T12:14:13.978Z,56.53
2023-02-08T12:17:50.515Z,57.72
2023-02-08T12:21:03.157Z,57.60
2023-02-08T12:24:22.646Z,56.79
2023-02-08T12:27:42.242Z,55.87
2023-02-08T12:31:01.696Z,55.91
2023-02-08T12:34:26.300Z,56.59
2023-02-08T12:38:06.023Z,56.02
2023-02-08T12:41:32.367Z,56.37
2023-02-08T12:45:22.831Z,56.38
2023-02-08T12:48:57.749Z,57.65
2023-02-08T12:52:30.635Z,57.12
2023-02-08T12:55:47.908Z,57.15
2023-02-08T12:59:13.825Z,57.26
2023-02-08T13:02:29.764Z,56.90
2023-02-08T13:05:36.148Z,56.78
2023-02-08T13:08:57.037Z,56.86
2023-02-08T13:12:08.649Z,57.05
2023-02-08T13:15:35.892Z,56.36
2023-02-08T13:18:52.014Z,57.55
2023-02-08T13:21:57.617Z,57.40
2023-02-08T13:25:08.012Z,57.17
2023-02-08T13:28:21.934Z,57.82
2023-02-08T13:31:31.141Z,58.47
2023-02-08T13:34:54.264Z,58.46
2023-02-08T13:38:06.458Z,58.08
2023-02-08T13:41:24.351Z,58.19
2023-02-08T13:44:37.298Z,58.23
2023-02-08T13:47:48.575Z,58.71
2023-02-08T13:51:04.429Z,58.95
2023-02-08T13:54:20.156Z,58.63
2023-02-08T13:58:07.782Z,59.55
2023-02-08T14:01:16.380Z,59.59
2023-02-08T14:04:30.002Z,60.02
2023-02-08T14:07:43.158Z,59.92
2023-02-08T14:10:55.424Z,59.76
2023-02-08T14:14:10.685Z,60.01
2023-02-08T14:17:38.893Z,60.04
2023-02-08T14:20:51.192Z,59.91
2023-02-08T14:23:57.712Z,60.40
2023-02-08T14:27:02.335Z,60.47
2023-02-08T14:30:32.367Z,61.03
2023-02-08T14:33:54.733Z,61.47
2023-02-08T14:37:00.592Z,61.69
2023-02-08T14:40:05.959Z,61.23
2023-02-08T14:43:21.368Z,61.24
2023-02-08T14:46:53.059Z,61.66
2023-02-08T14:49:59.376Z,62.00
2023-02-08T14:53:35.894Z,62.16
2023-02-08T14:56:50.745Z,62.36
2023-02-08T14:59:50.291Z,62.10
2023-02-08T15:02:43.946Z,62.52
2023-02-08T15:05:52.484Z,63.08
2023-02-08T15:09:00.105Z,62.87
2023-02-08T15:12:18.668Z,62.62
2023-02-08T15:15:44.898Z,63.06
2023-02-08T15:18:51.518Z,63.03
2023-02-08T15:21:58.000Z,63.20
2023-02-08T15:25:12.439Z,63.46
2023-02-08T15:28:33.085Z,62.08
2023-02-08T15:31:47.160Z,61.55
2023-02-08T15:34:54.924Z,63.24
2023-02-08T15:38:01.830Z,63.77
2023-02-08T15:41:26.416Z,63.92
2023-02-08T15:44:44.225Z,63.92
2023-02-08T15:47:51.601Z,63.94
2023-02-08T15:50:57.586Z,63.77
2023-02-08T15:54:08.864Z,64.13
2023-02-08T15:57:20.797Z,63.44
2023-02-08T16:00:39.841Z,63.79
2023-02-08T16:03:45.994Z,64.13
2023-02-08T16:06:55.278Z,64.41
2023-02-08T16:10:02.286Z,64.62
2023-02-08T16:13:13.644Z,64.88
2023-02-08T16:16:40.730Z,64.78
2023-02-08T16:19:47.960Z,64.81
2023-02-08T16:22:53.742Z,64.33
2023-02-08T16:26:00.124Z,64.79
2023-02-08T16:29:13.490Z,64.80
2023-02-08T16:32:21.543Z,65.03
2023-02-08T16:35:29.504Z,65.07
2023-02-08T16:38:37.317Z,65.15
2023-02-08T16:41:43.790Z,64.77
2023-02-08T16:44:51.078Z,65.35
2023-02-08T16:48:17.514Z,65.27
2023-02-08T16:51:12.730Z,64.57
2023-02-08T16:54:20.315Z,63.67
2023-02-08T16:57:26.683Z,63.16
2023-02-08T17:00:44.727Z,64.57
2023-02-08T17:03:50.943Z,65.87
2023-02-08T17:06:58.793Z,66.48
2023-02-08T17:10:04.222Z,66.27
2023-02-08T17:13:24.276Z,66.27
2023-02-08T17:16:16.016Z,66.16
2023-02-08T17:19:21.704Z,65.26
2023-02-08T17:22:27.900Z,64.08
2023-02-08T17:25:32.972Z,64.90
2023-02-08T17:28:41.122Z,65.17
2023-02-08T17:31:48.198Z,65.36
2023-02-08T17:34:54.233Z,66.08
2023-02-08T17:38:02.282Z,66.11
2023-02-08T17:41:01.491Z,66.26
2023-02-08T17:44:08.420Z,65.91
2023-02-08T17:47:14.088Z,65.71
2023-02-08T17:50:20.725Z,65.09
2023-02-08T17:53:26.874Z,65.35
2023-02-08T17:56:41.288Z,65.65
2023-02-08T17:59:46.156Z,66.25
2023-02-08T18:02:53.157Z,65.43
2023-02-08T18:05:58.853Z,64.31
2023-02-08T18:09:11.064Z,65.13
2023-02-08T18:12:17.478Z,66.16
2023-02-08T18:15:27.147Z,66.04
2023-02-08T18:18:32.369Z,65.94
2023-02-08T18:21:39.883Z,65.92
2023-02-08T18:24:46.345Z,65.66
2023-02-08T18:27:52.332Z,65.90
2023-02-08T18:30:58.608Z,65.72
2023-02-08T18:34:04.732Z,66.04
2023-02-08T18:37:10.177Z,66.08
2023-02-08T18:40:16.276Z,65.87
2023-02-08T18:43:22.369Z,65.79
2023-02-08T18:46:30.197Z,66.05
2023-02-08T18:49:36.698Z,65.98
2023-02-08T18:52:42.220Z,66.37
2023-02-08T18:55:34.476Z,66.50
2023-02-08T18:58:40.884Z,66.47
2023-02-08T19:01:46.925Z,66.69
2023-02-08T19:04:54.093Z,66.96
2023-02-08T19:08:00.251Z,67.02
2023-02-08T19:11:06.989Z,66.56
2023-02-08T19:14:14.022Z,66.69
2023-02-08T19:17:18.972Z,66.58
2023-02-08T19:20:26.127Z,66.63
2023-02-08T19:23:32.216Z,66.24
2023-02-08T19:26:40.456Z,66.74
2023-02-08T19:29:45.478Z,66.70
2023-02-08T19:32:51.616Z,66.59
2023-02-08T19:35:58.438Z,66.44
2023-02-08T19:39:04.909Z,66.67
2023-02-08T19:42:10.475Z,66.37
2023-02-08T19:45:15.586Z,66.18
2023-02-08T19:48:16.179Z,66.04
2023-02-08T19:51:22.164Z,66.62
2023-02-08T19:54:29.584Z,66.64
2023-02-08T19:57:35.274Z,67.92
2023-02-08T20:00:34.816Z,67.87
2023-02-08T20:03:41.021Z,68.29
2023-02-08T20:06:52.367Z,67.74
2023-02-08T20:09:58.034Z,68.17
2023-02-08T20:13:03.493Z,68.20
2023-02-08T20:16:12.090Z,68.47
2023-02-08T20:19:19.711Z,68.60
2023-02-08T20:22:26.021Z,68.16
2023-02-08T20:25:31.489Z,68.13
2023-02-08T20:28:37.142Z,68.48
2023-02-08T20:31:45.428Z,69.10
2023-02-08T20:34:59.372Z,68.81
2023-02-08T20:38:00.040Z,68.70
2023-02-08T20:41:06.457Z,68.94
2023-02-08T20:44:11.740Z,69.25
2023-02-08T20:47:18.423Z,69.02
2023-02-08T20:50:24.857Z,68.88
2023-02-08T20:53:30.949Z,69.11
2023-02-08T20:56:42.762Z,69.62
2023-02-08T20:59:47.766Z,69.62
2023-02-08T21:02:53.639Z,69.30
2023-02-08T21:06:00.058Z,67.96
2023-02-08T21:09:06.178Z,68.13
2023-02-08T21:12:12.920Z,68.67
2023-02-08T21:15:18.385Z,68.28
2023-02-08T21:18:24.200Z,68.12
2023-02-08T21:21:31.162Z,68.35
2023-02-08T21:24:37.845Z,67.88
2023-02-08T21:27:43.674Z,68.28
2023-02-08T21:30:49.698Z,67.57
2023-02-08T21:33:56.892Z,67.66
2023-02-08T21:37:03.229Z,68.30
2023-02-08T21:40:02.063Z,68.05
2023-02-08T21:43:08.157Z,68.40
2023-02-08T21:46:18.674Z,68.35
2023-02-08T21:49:41.811Z,68.25
2023-02-08T21:53:04.936Z,67.32
2023-02-08T21:56:10.370Z,67.99
2023-02-08T21:59:16.226Z,68.12
2023-02-08T22:02:34.929Z,68.51
2023-02-08T22:05:57.557Z,68.10
2023-02-08T22:09:03.814Z,68.33
2023-02-08T22:12:08.732Z,68.39
2023-02-08T22:15:14.331Z,68.74
2023-02-08T22:18:20.184Z,68.50
2023-02-08T22:21:24.694Z,68.64
2023-02-08T22:24:29.864Z,68.56
2023-02-08T22:27:36.178Z,67.88
2023-02-08T22:30:43.786Z,67.50
2023-02-08T22:33:49.466Z,67.71
2023-02-08T22:36:55.450Z,68.03
2023-02-08T22:40:00.223Z,67.87
2023-02-08T22:43:06.362Z,67.68
2023-02-08T22:46:15.312Z,67.79
2023-02-08T22:49:20.402Z,67.71
2023-02-08T22:52:26.062Z,67.10
2023-02-08T22:55:33.662Z,66.92
2023-02-08T22:58:39.590Z,67.78
2023-02-08T23:01:44.733Z,67.44
2023-02-08T23:04:51.335Z,67.15
2023-02-08T23:07:57.805Z,66.17
2023-02-08T23:11:03.161Z,67.40
2023-02-08T23:14:09.462Z,66.72
2023-02-08T23:17:15.670Z,68.03
2023-02-08T23:20:20.742Z,67.27
2023-02-08T23:23:26.372Z,67.77
2023-02-08T23:26:34.503Z,67.81
2023-02-08T23:29:40.657Z,67.71
2023-02-08T23:32:46.563Z,67.69
2023-02-08T23:35:56.298Z,67.68
2023-02-08T23:39:02.442Z,67.13
2023-02-08T23:42:10.669Z,66.92
2023-02-08T23:45:17.014Z,66.42
2023-02-08T23:48:22.549Z,66.25
2023-02-08T23:51:22.447Z,65.81
2023-02-08T23:54:15.571Z,65.76
2023-02-08T23:57:14.864Z,66.24
